sensor_id;sensor_type;location;lat;lon;timestamp;temperature;humidity
152;DHT22;68;48.792;9.164;2023-10-09T00:00:34;17.20;73.90
152;DHT22;68;48.792;9.164;2023-10-09T00:03:16;17.10;74.40
152;DHT22;68;48.792;9.164;2023-10-09T00:05:43;17.00;74.90
152;DHT22;68;48.792;9.164;2023-10-09T00:08:12;16.90;75.30
152;DHT22;68;48.792;9.164;2023-10-09T00:10:42;16.90;75.20
152;DHT22;68;48.792;9.164;2023-10-09T00:13:14;17.00;75.20
152;DHT22;68;48.792;9.164;2023-10-09T00:15:43;16.90;75.60
152;DHT22;68;48.792;9.164;2023-10-09T00:18:17;16.90;75.70
152;DHT22;68;48.792;9.164;2023-10-09T00:20:54;17.00;75.50
152;DHT22;68;48.792;9.164;2023-10-09T00:23:25;17.00;75.20
152;DHT22;68;48.792;9.164;2023-10-09T00:25:53;17.10;75.30
152;DHT22;68;48.792;9.164;2023-10-09T00:28:37;17.10;75.00
152;DHT22;68;48.792;9.164;2023-10-09T00:31:08;17.00;74.80
152;DHT22;68;48.792;9.164;2023-10-09T00:33:40;17.00;75.30
152;DHT22;68;48.792;9.164;2023-10-09T00:36:07;17.10;74.90
152;DHT22;68;48.792;9.164;2023-10-09T00:38:36;17.30;74.60
152;DHT22;68;48.792;9.164;2023-10-09T00:41:04;17.30;74.70
152;DHT22;68;48.792;9.164;2023-10-09T00:43:37;17.30;75.30
152;DHT22;68;48.792;9.164;2023-10-09T00:46:10;17.30;74.90
152;DHT22;68;48.792;9.164;2023-10-09T00:48:51;17.30;74.80
152;DHT22;68;48.792;9.164;2023-10-09T00:51:19;17.30;74.80
152;DHT22;68;48.792;9.164;2023-10-09T00:53:51;17.20;75.10
152;DHT22;68;48.792;9.164;2023-10-09T00:56:19;17.00;75.60
152;DHT22;68;48.792;9.164;2023-10-09T00:58:56;16.90;76.20
152;DHT22;68;48.792;9.164;2023-10-09T01:01:27;16.90;76.40
152;DHT22;68;48.792;9.164;2023-10-09T01:04:00;16.80;76.60
152;DHT22;68;48.792;9.164;2023-10-09T01:06:36;16.80;76.60
152;DHT22;68;48.792;9.164;2023-10-09T01:09:09;16.70;77.10
152;DHT22;68;48.792;9.164;2023-10-09T01:11:36;16.70;76.80
152;DHT22;68;48.792;9.164;2023-10-09T01:14:14;16.60;77.00
152;DHT22;68;48.792;9.164;2023-10-09T01:16:42;16.60;77.50
152;DHT22;68;48.792;9.164;2023-10-09T01:19:10;16.60;77.10
152;DHT22;68;48.792;9.164;2023-10-09T01:21:46;16.70;76.90
152;DHT22;68;48.792;9.164;2023-10-09T01:24:15;16.70;76.60
152;DHT22;68;48.792;9.164;2023-10-09T01:26:46;16.70;76.50
152;DHT22;68;48.792;9.164;2023-10-09T01:29:16;16.80;76.40
152;DHT22;68;48.792;9.164;2023-10-09T01:31:46;16.80;76.20
152;DHT22;68;48.792;9.164;2023-10-09T01:34:20;16.90;76.20
152;DHT22;68;48.792;9.164;2023-10-09T01:36:53;16.90;76.10
152;DHT22;68;48.792;9.164;2023-10-09T01:39:23;17.00;75.80
152;DHT22;68;48.792;9.164;2023-10-09T01:41:52;17.10;75.50
152;DHT22;68;48.792;9.164;2023-10-09T01:44:25;17.10;75.70
152;DHT22;68;48.792;9.164;2023-10-09T01:46:53;17.20;75.50
152;DHT22;68;48.792;9.164;2023-10-09T01:49:23;17.30;75.20
152;DHT22;68;48.792;9.164;2023-10-09T01:51:55;17.30;74.80
152;DHT22;68;48.792;9.164;2023-10-09T01:54:26;17.40;74.90
152;DHT22;68;48.792;9.164;2023-10-09T01:57:07;17.40;74.80
152;DHT22;68;48.792;9.164;2023-10-09T01:59:37;17.40;74.80
152;DHT22;68;48.792;9.164;2023-10-09T02:02:11;17.40;74.50
152;DHT22;68;48.792;9.164;2023-10-09T02:04:52;17.40;74.00
152;DHT22;68;48.792;9.164;2023-10-09T02:07:20;17.40;73.80
152;DHT22;68;48.792;9.164;2023-10-09T02:09:56;17.30;74.20
152;DHT22;68;48.792;9.164;2023-10-09T02:12:23;17.40;74.10
152;DHT22;68;48.792;9.164;2023-10-09T02:14:50;17.40;74.30
152;DHT22;68;48.792;9.164;2023-10-09T02:17:19;17.40;74.10
152;DHT22;68;48.792;9.164;2023-10-09T02:19:50;17.40;74.30
152;DHT22;68;48.792;9.164;2023-10-09T02:22:18;17.40;74.40
152;DHT22;68;48.792;9.164;2023-10-09T02:24:45;17.50;74.30
152;DHT22;68;48.792;9.164;2023-10-09T02:27:25;17.40;75.00
152;DHT22;68;48.792;9.164;2023-10-09T02:30:11;17.40;74.60
152;DHT22;68;48.792;9.164;2023-10-09T02:32:44;17.40;74.20
152;DHT22;68;48.792;9.164;2023-10-09T02:35:14;17.40;74.70
152;DHT22;68;48.792;9.164;2023-10-09T02:37:53;17.40;73.90
152;DHT22;68;48.792;9.164;2023-10-09T02:40:20;17.40;74.10
152;DHT22;68;48.792;9.164;2023-10-09T02:42:58;17.40;74.00
152;DHT22;68;48.792;9.164;2023-10-09T02:45:25;17.30;73.80
152;DHT22;68;48.792;9.164;2023-10-09T02:47:58;17.30;73.60
152;DHT22;68;48.792;9.164;2023-10-09T02:50:25;17.30;73.50
152;DHT22;68;48.792;9.164;2023-10-09T02:52:54;17.40;73.10
152;DHT22;68;48.792;9.164;2023-10-09T02:55:34;17.40;73.30
152;DHT22;68;48.792;9.164;2023-10-09T02:58:05;17.50;73.50
152;DHT22;68;48.792;9.164;2023-10-09T03:00:36;17.50;73.70
152;DHT22;68;48.792;9.164;2023-10-09T03:03:04;17.60;73.90
152;DHT22;68;48.792;9.164;2023-10-09T03:05:33;17.60;74.20
152;DHT22;68;48.792;9.164;2023-10-09T03:08:00;17.60;74.60
152;DHT22;68;48.792;9.164;2023-10-09T03:10:27;17.50;74.80
152;DHT22;68;48.792;9.164;2023-10-09T03:12:54;17.50;74.70
152;DHT22;68;48.792;9.164;2023-10-09T03:15:22;17.50;74.70
152;DHT22;68;48.792;9.164;2023-10-09T03:17:49;17.50;74.40
152;DHT22;68;48.792;9.164;2023-10-09T03:20:16;17.50;74.70
152;DHT22;68;48.792;9.164;2023-10-09T03:22:44;17.40;74.70
152;DHT22;68;48.792;9.164;2023-10-09T03:25:13;17.40;74.60
152;DHT22;68;48.792;9.164;2023-10-09T03:27:42;17.50;74.40
152;DHT22;68;48.792;9.164;2023-10-09T03:30:12;17.40;74.50
152;DHT22;68;48.792;9.164;2023-10-09T03:32:44;17.40;74.20
152;DHT22;68;48.792;9.164;2023-10-09T03:35:16;17.40;74.00
152;DHT22;68;48.792;9.164;2023-10-09T03:37:51;17.30;74.30
152;DHT22;68;48.792;9.164;2023-10-09T03:40:18;17.30;74.60
152;DHT22;68;48.792;9.164;2023-10-09T03:42:47;17.30;73.80
152;DHT22;68;48.792;9.164;2023-10-09T03:45:14;17.30;74.10
152;DHT22;68;48.792;9.164;2023-10-09T03:47:53;17.40;73.80
152;DHT22;68;48.792;9.164;2023-10-09T03:50:26;17.40;73.60
152;DHT22;68;48.792;9.164;2023-10-09T03:53:02;17.50;73.50
152;DHT22;68;48.792;9.164;2023-10-09T03:55:29;17.60;73.10
152;DHT22;68;48.792;9.164;2023-10-09T03:57:57;17.60;73.00
152;DHT22;68;48.792;9.164;2023-10-09T04:00:27;17.60;73.20
152;DHT22;68;48.792;9.164;2023-10-09T04:02:55;17.60;73.10
152;DHT22;68;48.792;9.164;2023-10-09T04:05:23;17.60;73.00
152;DHT22;68;48.792;9.164;2023-10-09T04:07:51;17.60;73.10
152;DHT22;68;48.792;9.164;2023-10-09T04:10:19;17.50;73.00
152;DHT22;68;48.792;9.164;2023-10-09T04:13:18;17.50;73.20
152;DHT22;68;48.792;9.164;2023-10-09T04:15:50;17.40;73.60
152;DHT22;68;48.792;9.164;2023-10-09T04:18:20;17.30;74.30
152;DHT22;68;48.792;9.164;2023-10-09T04:20:54;17.40;74.60
152;DHT22;68;48.792;9.164;2023-10-09T04:23:39;17.40;73.90
152;DHT22;68;48.792;9.164;2023-10-09T04:26:19;17.40;74.50
152;DHT22;68;48.792;9.164;2023-10-09T04:28:46;17.40;74.00
152;DHT22;68;48.792;9.164;2023-10-09T04:31:17;17.40;73.90
152;DHT22;68;48.792;9.164;2023-10-09T04:33:47;17.40;73.90
152;DHT22;68;48.792;9.164;2023-10-09T04:36:23;17.40;73.90
152;DHT22;68;48.792;9.164;2023-10-09T04:38:54;17.40;74.00
152;DHT22;68;48.792;9.164;2023-10-09T04:41:41;17.40;74.30
152;DHT22;68;48.792;9.164;2023-10-09T04:44:18;17.40;74.20
152;DHT22;68;48.792;9.164;2023-10-09T04:46:44;17.30;74.20
152;DHT22;68;48.792;9.164;2023-10-09T04:49:33;17.30;74.70
152;DHT22;68;48.792;9.164;2023-10-09T04:52:15;17.20;74.80
152;DHT22;68;48.792;9.164;2023-10-09T04:54:45;17.20;74.70
152;DHT22;68;48.792;9.164;2023-10-09T04:57:26;17.20;75.50
152;DHT22;68;48.792;9.164;2023-10-09T04:59:53;17.20;75.20
152;DHT22;68;48.792;9.164;2023-10-09T05:02:23;17.20;75.60
152;DHT22;68;48.792;9.164;2023-10-09T05:05:03;17.10;76.00
152;DHT22;68;48.792;9.164;2023-10-09T05:08:02;17.10;76.30
152;DHT22;68;48.792;9.164;2023-10-09T05:10:44;17.10;76.10
152;DHT22;68;48.792;9.164;2023-10-09T05:13:31;17.10;76.80
152;DHT22;68;48.792;9.164;2023-10-09T05:16:09;17.10;76.80
152;DHT22;68;48.792;9.164;2023-10-09T05:18:41;17.10;77.20
152;DHT22;68;48.792;9.164;2023-10-09T05:21:12;17.10;77.20
152;DHT22;68;48.792;9.164;2023-10-09T05:24:03;17.10;77.10
152;DHT22;68;48.792;9.164;2023-10-09T05:26:45;17.00;77.70
152;DHT22;68;48.792;9.164;2023-10-09T05:29:18;17.00;77.70
152;DHT22;68;48.792;9.164;2023-10-09T05:31:45;17.00;78.00
152;DHT22;68;48.792;9.164;2023-10-09T05:34:21;17.00;77.80
152;DHT22;68;48.792;9.164;2023-10-09T05:36:49;16.90;77.90
152;DHT22;68;48.792;9.164;2023-10-09T05:39:16;16.90;78.30
152;DHT22;68;48.792;9.164;2023-10-09T05:41:44;16.90;78.60
152;DHT22;68;48.792;9.164;2023-10-09T05:44:18;16.90;79.00
152;DHT22;68;48.792;9.164;2023-10-09T05:47:03;16.90;79.60
152;DHT22;68;48.792;9.164;2023-10-09T05:49:47;16.90;79.50
152;DHT22;68;48.792;9.164;2023-10-09T05:52:29;16.80;79.60
152;DHT22;68;48.792;9.164;2023-10-09T05:54:58;16.80;80.00
152;DHT22;68;48.792;9.164;2023-10-09T05:58:06;16.80;80.10
152;DHT22;68;48.792;9.164;2023-10-09T06:00:50;16.80;80.40
152;DHT22;68;48.792;9.164;2023-10-09T06:03:46;16.80;80.10
152;DHT22;68;48.792;9.164;2023-10-09T06:06:19;16.80;80.20
152;DHT22;68;48.792;9.164;2023-10-09T06:09:01;16.80;79.20
152;DHT22;68;48.792;9.164;2023-10-09T06:12:00;16.80;79.80
152;DHT22;68;48.792;9.164;2023-10-09T06:14:45;16.80;80.10
152;DHT22;68;48.792;9.164;2023-10-09T06:17:30;16.80;80.10
152;DHT22;68;48.792;9.164;2023-10-09T06:20:09;16.80;80.20
152;DHT22;68;48.792;9.164;2023-10-09T06:22:58;16.90;80.00
152;DHT22;68;48.792;9.164;2023-10-09T06:25:25;16.90;80.20
152;DHT22;68;48.792;9.164;2023-10-09T06:27:58;16.90;79.80
152;DHT22;68;48.792;9.164;2023-10-09T06:30:24;17.00;79.80
152;DHT22;68;48.792;9.164;2023-10-09T06:32:52;17.00;79.60
152;DHT22;68;48.792;9.164;2023-10-09T06:35:33;17.00;79.50
152;DHT22;68;48.792;9.164;2023-10-09T06:38:01;17.00;79.00
152;DHT22;68;48.792;9.164;2023-10-09T06:40:49;17.10;79.40
152;DHT22;68;48.792;9.164;2023-10-09T06:43:42;17.00;79.20
152;DHT22;68;48.792;9.164;2023-10-09T06:46:16;17.10;79.60
152;DHT22;68;48.792;9.164;2023-10-09T06:49:00;17.10;79.60
152;DHT22;68;48.792;9.164;2023-10-09T06:51:44;17.20;79.80
152;DHT22;68;48.792;9.164;2023-10-09T06:54:12;17.20;79.90
152;DHT22;68;48.792;9.164;2023-10-09T06:56:46;17.30;79.60
152;DHT22;68;48.792;9.164;2023-10-09T06:59:38;17.30;79.90
152;DHT22;68;48.792;9.164;2023-10-09T07:02:28;17.30;79.90
152;DHT22;68;48.792;9.164;2023-10-09T07:04:57;17.40;80.30
152;DHT22;68;48.792;9.164;2023-10-09T07:07:36;17.40;80.00
152;DHT22;68;48.792;9.164;2023-10-09T07:10:15;17.50;79.70
152;DHT22;68;48.792;9.164;2023-10-09T07:13:00;17.50;79.50
152;DHT22;68;48.792;9.164;2023-10-09T07:15:28;17.60;79.30
152;DHT22;68;48.792;9.164;2023-10-09T07:18:12;17.60;79.40
152;DHT22;68;48.792;9.164;2023-10-09T07:20:50;17.70;78.90
152;DHT22;68;48.792;9.164;2023-10-09T07:23:27;17.70;79.00
152;DHT22;68;48.792;9.164;2023-10-09T07:26:03;17.80;78.90
152;DHT22;68;48.792;9.164;2023-10-09T07:28:46;17.80;78.80
152;DHT22;68;48.792;9.164;2023-10-09T07:31:18;17.80;78.30
152;DHT22;68;48.792;9.164;2023-10-09T07:33:53;17.90;78.30
152;DHT22;68;48.792;9.164;2023-10-09T07:36:32;18.10;78.00
152;DHT22;68;48.792;9.164;2023-10-09T07:39:04;18.10;79.20
152;DHT22;68;48.792;9.164;2023-10-09T07:41:39;18.10;79.40
152;DHT22;68;48.792;9.164;2023-10-09T07:44:11;18.10;78.70
152;DHT22;68;48.792;9.164;2023-10-09T07:47:03;18.20;77.80
152;DHT22;68;48.792;9.164;2023-10-09T07:49:48;18.30;77.30
152;DHT22;68;48.792;9.164;2023-10-09T07:52:19;18.30;77.70
152;DHT22;68;48.792;9.164;2023-10-09T07:54:48;18.40;77.80
152;DHT22;68;48.792;9.164;2023-10-09T07:57:27;18.40;77.60
152;DHT22;68;48.792;9.164;2023-10-09T08:00:06;18.50;77.40
152;DHT22;68;48.792;9.164;2023-10-09T08:03:01;18.60;77.80
152;DHT22;68;48.792;9.164;2023-10-09T08:05:35;18.50;77.80
152;DHT22;68;48.792;9.164;2023-10-09T08:08:09;18.60;78.00
152;DHT22;68;48.792;9.164;2023-10-09T08:11:07;18.80;78.20
152;DHT22;68;48.792;9.164;2023-10-09T08:14:00;18.80;78.00
152;DHT22;68;48.792;9.164;2023-10-09T08:16:29;18.90;78.00
152;DHT22;68;48.792;9.164;2023-10-09T08:19:06;19.00;77.90
152;DHT22;68;48.792;9.164;2023-10-09T08:21:57;19.00;76.60
152;DHT22;68;48.792;9.164;2023-10-09T08:25:04;19.10;76.30
152;DHT22;68;48.792;9.164;2023-10-09T08:27:30;19.20;76.80
152;DHT22;68;48.792;9.164;2023-10-09T08:30:21;19.30;76.60
152;DHT22;68;48.792;9.164;2023-10-09T08:33:07;19.30;74.60
152;DHT22;68;48.792;9.164;2023-10-09T08:35:48;19.40;74.20
152;DHT22;68;48.792;9.164;2023-10-09T08:38:17;19.50;74.30
152;DHT22;68;48.792;9.164;2023-10-09T08:40:49;19.60;73.20
152;DHT22;68;48.792;9.164;2023-10-09T08:43:17;19.70;73.00
152;DHT22;68;48.792;9.164;2023-10-09T08:45:46;19.70;73.20
152;DHT22;68;48.792;9.164;2023-10-09T08:48:14;19.80;73.70
152;DHT22;68;48.792;9.164;2023-10-09T08:50:42;19.80;74.20
152;DHT22;68;48.792;9.164;2023-10-09T08:53:10;19.80;74.60
152;DHT22;68;48.792;9.164;2023-10-09T08:55:37;19.80;74.30
152;DHT22;68;48.792;9.164;2023-10-09T08:58:05;19.90;73.70
152;DHT22;68;48.792;9.164;2023-10-09T09:00:41;19.90;72.70
152;DHT22;68;48.792;9.164;2023-10-09T09:03:11;20.10;73.50
152;DHT22;68;48.792;9.164;2023-10-09T09:05:40;20.20;73.90
152;DHT22;68;48.792;9.164;2023-10-09T09:08:21;20.30;73.90
152;DHT22;68;48.792;9.164;2023-10-09T09:10:55;20.40;74.10
152;DHT22;68;48.792;9.164;2023-10-09T09:13:24;20.50;73.90
152;DHT22;68;48.792;9.164;2023-10-09T09:15:50;20.50;74.10
152;DHT22;68;48.792;9.164;2023-10-09T09:18:19;20.60;74.40
152;DHT22;68;48.792;9.164;2023-10-09T09:20:47;20.70;73.20
152;DHT22;68;48.792;9.164;2023-10-09T09:23:19;20.80;72.70
152;DHT22;68;48.792;9.164;2023-10-09T09:25:49;20.90;70.10
152;DHT22;68;48.792;9.164;2023-10-09T09:28:24;21.00;71.10
152;DHT22;68;48.792;9.164;2023-10-09T09:30:52;21.10;70.70
152;DHT22;68;48.792;9.164;2023-10-09T09:33:22;21.10;70.20
152;DHT22;68;48.792;9.164;2023-10-09T09:35:58;21.20;70.60
152;DHT22;68;48.792;9.164;2023-10-09T09:38:26;21.30;71.00
152;DHT22;68;48.792;9.164;2023-10-09T09:40:55;21.40;71.20
152;DHT22;68;48.792;9.164;2023-10-09T09:43:23;21.50;70.80
152;DHT22;68;48.792;9.164;2023-10-09T09:45:53;21.50;70.50
152;DHT22;68;48.792;9.164;2023-10-09T09:48:23;21.50;70.60
152;DHT22;68;48.792;9.164;2023-10-09T09:50:52;21.50;71.20
152;DHT22;68;48.792;9.164;2023-10-09T09:53:21;21.50;70.40
152;DHT22;68;48.792;9.164;2023-10-09T09:55:51;21.50;70.40
152;DHT22;68;48.792;9.164;2023-10-09T09:58:23;21.50;71.00
152;DHT22;68;48.792;9.164;2023-10-09T10:00:53;21.50;70.30
152;DHT22;68;48.792;9.164;2023-10-09T10:03:34;21.60;69.80
152;DHT22;68;48.792;9.164;2023-10-09T10:06:02;21.60;71.00
152;DHT22;68;48.792;9.164;2023-10-09T10:08:36;21.60;71.40
152;DHT22;68;48.792;9.164;2023-10-09T10:11:04;21.60;70.90
152;DHT22;68;48.792;9.164;2023-10-09T10:13:56;21.70;70.50
152;DHT22;68;48.792;9.164;2023-10-09T10:16:25;21.80;70.60
152;DHT22;68;48.792;9.164;2023-10-09T10:19:00;21.80;70.40
152;DHT22;68;48.792;9.164;2023-10-09T10:21:33;21.90;70.60
152;DHT22;68;48.792;9.164;2023-10-09T10:24:40;21.90;70.60
152;DHT22;68;48.792;9.164;2023-10-09T10:27:19;22.00;70.90
152;DHT22;68;48.792;9.164;2023-10-09T10:32:58;22.00;72.20
152;DHT22;68;48.792;9.164;2023-10-09T10:35:34;22.20;71.70
152;DHT22;68;48.792;9.164;2023-10-09T10:38:29;22.20;71.40
152;DHT22;68;48.792;9.164;2023-10-09T10:41:16;22.30;71.10
152;DHT22;68;48.792;9.164;2023-10-09T10:43:43;22.40;71.30
152;DHT22;68;48.792;9.164;2023-10-09T10:46:46;22.40;72.00
152;DHT22;68;48.792;9.164;2023-10-09T10:49:18;22.40;68.30
152;DHT22;68;48.792;9.164;2023-10-09T10:51:48;22.30;70.00
152;DHT22;68;48.792;9.164;2023-10-09T10:54:21;22.40;68.50
152;DHT22;68;48.792;9.164;2023-10-09T10:57:15;22.50;67.50
152;DHT22;68;48.792;9.164;2023-10-09T10:59:54;22.50;68.10
152;DHT22;68;48.792;9.164;2023-10-09T11:02:41;22.50;68.40
152;DHT22;68;48.792;9.164;2023-10-09T11:05:09;22.60;65.60
152;DHT22;68;48.792;9.164;2023-10-09T11:07:49;22.70;65.80
152;DHT22;68;48.792;9.164;2023-10-09T11:10:22;22.70;66.00
152;DHT22;68;48.792;9.164;2023-10-09T11:12:54;22.70;65.60
152;DHT22;68;48.792;9.164;2023-10-09T11:15:53;22.90;63.70
152;DHT22;68;48.792;9.164;2023-10-09T11:18:40;23.00;63.40
152;DHT22;68;48.792;9.164;2023-10-09T11:21:13;23.10;63.80
152;DHT22;68;48.792;9.164;2023-10-09T11:23:58;23.10;63.80
152;DHT22;68;48.792;9.164;2023-10-09T11:26:25;23.10;61.70
152;DHT22;68;48.792;9.164;2023-10-09T11:29:11;23.20;60.40
152;DHT22;68;48.792;9.164;2023-10-09T11:31:42;23.40;62.20
152;DHT22;68;48.792;9.164;2023-10-09T11:34:23;23.30;58.40
152;DHT22;68;48.792;9.164;2023-10-09T11:36:56;23.10;59.90
152;DHT22;68;48.792;9.164;2023-10-09T11:39:25;23.20;60.20
152;DHT22;68;48.792;9.164;2023-10-09T11:42:05;23.20;61.50
152;DHT22;68;48.792;9.164;2023-10-09T11:44:41;23.10;60.50
152;DHT22;68;48.792;9.164;2023-10-09T11:47:10;23.10;60.90
152;DHT22;68;48.792;9.164;2023-10-09T11:49:51;23.10;58.90
152;DHT22;68;48.792;9.164;2023-10-09T11:52:55;22.90;58.60
152;DHT22;68;48.792;9.164;2023-10-09T11:55:34;22.90;59.70
152;DHT22;68;48.792;9.164;2023-10-09T11:58:01;22.80;59.40
152;DHT22;68;48.792;9.164;2023-10-09T12:00:31;23.00;59.50
152;DHT22;68;48.792;9.164;2023-10-09T12:03:10;23.10;60.00
152;DHT22;68;48.792;9.164;2023-10-09T12:05:38;23.30;58.10
152;DHT22;68;48.792;9.164;2023-10-09T12:08:08;23.20;57.90
152;DHT22;68;48.792;9.164;2023-10-09T12:10:35;23.10;58.80
152;DHT22;68;48.792;9.164;2023-10-09T12:13:03;23.30;59.20
152;DHT22;68;48.792;9.164;2023-10-09T12:15:32;23.30;57.90
152;DHT22;68;48.792;9.164;2023-10-09T12:18:07;23.40;57.20
152;DHT22;68;48.792;9.164;2023-10-09T12:20:41;23.50;57.30
152;DHT22;68;48.792;9.164;2023-10-09T12:23:10;23.70;56.50
152;DHT22;68;48.792;9.164;2023-10-09T12:25:40;23.80;56.00
152;DHT22;68;48.792;9.164;2023-10-09T12:28:10;24.00;55.80
152;DHT22;68;48.792;9.164;2023-10-09T12:30:39;24.10;55.40
152;DHT22;68;48.792;9.164;2023-10-09T12:33:07;24.30;55.60
152;DHT22;68;48.792;9.164;2023-10-09T12:35:37;24.50;55.90
152;DHT22;68;48.792;9.164;2023-10-09T12:38:05;24.80;55.60
152;DHT22;68;48.792;9.164;2023-10-09T12:40:34;25.00;54.60
152;DHT22;68;48.792;9.164;2023-10-09T12:43:01;25.20;55.50
152;DHT22;68;48.792;9.164;2023-10-09T12:45:28;25.00;55.50
152;DHT22;68;48.792;9.164;2023-10-09T12:47:59;24.70;55.90
152;DHT22;68;48.792;9.164;2023-10-09T12:50:28;24.80;56.20
152;DHT22;68;48.792;9.164;2023-10-09T12:52:59;24.60;58.50
152;DHT22;68;48.792;9.164;2023-10-09T12:55:27;24.70;58.70
152;DHT22;68;48.792;9.164;2023-10-09T12:58:01;24.80;58.50
152;DHT22;68;48.792;9.164;2023-10-09T13:00:32;24.70;55.90
152;DHT22;68;48.792;9.164;2023-10-09T13:03:00;24.40;55.50
152;DHT22;68;48.792;9.164;2023-10-09T13:05:27;24.50;56.80
152;DHT22;68;48.792;9.164;2023-10-09T13:07:54;24.60;53.60
152;DHT22;68;48.792;9.164;2023-10-09T13:10:23;24.60;54.50
152;DHT22;68;48.792;9.164;2023-10-09T13:12:50;24.70;53.10
152;DHT22;68;48.792;9.164;2023-10-09T13:15:21;24.60;52.70
152;DHT22;68;48.792;9.164;2023-10-09T13:17:49;24.60;49.30
152;DHT22;68;48.792;9.164;2023-10-09T13:20:20;24.70;47.30
152;DHT22;68;48.792;9.164;2023-10-09T13:22:47;24.90;48.50
152;DHT22;68;48.792;9.164;2023-10-09T13:25:14;25.00;48.50
152;DHT22;68;48.792;9.164;2023-10-09T13:27:42;24.90;48.40
152;DHT22;68;48.792;9.164;2023-10-09T13:30:17;25.00;47.00
152;DHT22;68;48.792;9.164;2023-10-09T13:32:48;24.80;47.20
152;DHT22;68;48.792;9.164;2023-10-09T13:35:16;24.70;43.30
152;DHT22;68;48.792;9.164;2023-10-09T13:37:45;25.00;44.90
152;DHT22;68;48.792;9.164;2023-10-09T13:40:20;25.00;44.70
152;DHT22;68;48.792;9.164;2023-10-09T13:42:54;25.10;45.00
152;DHT22;68;48.792;9.164;2023-10-09T13:45:25;25.10;42.70
152;DHT22;68;48.792;9.164;2023-10-09T13:47:54;25.30;42.40
152;DHT22;68;48.792;9.164;2023-10-09T13:50:21;25.30;42.60
152;DHT22;68;48.792;9.164;2023-10-09T13:52:51;25.30;37.80
152;DHT22;68;48.792;9.164;2023-10-09T13:55:19;25.50;40.40
152;DHT22;68;48.792;9.164;2023-10-09T13:57:46;25.40;42.60
152;DHT22;68;48.792;9.164;2023-10-09T14:00:14;25.50;40.80
152;DHT22;68;48.792;9.164;2023-10-09T14:02:58;25.60;39.30
152;DHT22;68;48.792;9.164;2023-10-09T14:05:27;25.80;38.90
152;DHT22;68;48.792;9.164;2023-10-09T14:07:55;25.90;39.30
152;DHT22;68;48.792;9.164;2023-10-09T14:10:25;25.80;36.10
152;DHT22;68;48.792;9.164;2023-10-09T14:12:55;25.70;37.30
152;DHT22;68;48.792;9.164;2023-10-09T14:15:23;25.90;39.70
152;DHT22;68;48.792;9.164;2023-10-09T14:17:49;26.00;39.60
152;DHT22;68;48.792;9.164;2023-10-09T14:20:21;26.10;39.70
152;DHT22;68;48.792;9.164;2023-10-09T14:22:58;26.00;41.30
152;DHT22;68;48.792;9.164;2023-10-09T14:25:32;25.90;42.60
152;DHT22;68;48.792;9.164;2023-10-09T14:27:59;25.70;39.70
152;DHT22;68;48.792;9.164;2023-10-09T14:30:26;25.50;42.60
152;DHT22;68;48.792;9.164;2023-10-09T14:32:59;25.50;43.10
152;DHT22;68;48.792;9.164;2023-10-09T14:35:28;25.50;43.80
152;DHT22;68;48.792;9.164;2023-10-09T14:37:56;25.30;42.60
152;DHT22;68;48.792;9.164;2023-10-09T14:40:24;25.30;43.20
152;DHT22;68;48.792;9.164;2023-10-09T14:42:57;25.50;42.60
152;DHT22;68;48.792;9.164;2023-10-09T14:45:24;25.60;43.90
152;DHT22;68;48.792;9.164;2023-10-09T14:47:52;25.50;45.20
152;DHT22;68;48.792;9.164;2023-10-09T14:50:20;25.40;44.70
152;DHT22;68;48.792;9.164;2023-10-09T14:52:48;25.30;44.40
152;DHT22;68;48.792;9.164;2023-10-09T14:55:16;25.30;44.40
152;DHT22;68;48.792;9.164;2023-10-09T14:57:48;25.30;44.00
152;DHT22;68;48.792;9.164;2023-10-09T15:00:16;25.30;44.30
152;DHT22;68;48.792;9.164;2023-10-09T15:02:49;25.30;44.90
152;DHT22;68;48.792;9.164;2023-10-09T15:05:16;25.30;44.50
152;DHT22;68;48.792;9.164;2023-10-09T15:07:43;25.30;44.20
152;DHT22;68;48.792;9.164;2023-10-09T15:10:11;25.30;44.80
152;DHT22;68;48.792;9.164;2023-10-09T15:12:41;25.30;44.40
152;DHT22;68;48.792;9.164;2023-10-09T15:15:10;25.20;44.10
152;DHT22;68;48.792;9.164;2023-10-09T15:17:39;25.20;44.70
152;DHT22;68;48.792;9.164;2023-10-09T15:20:10;25.10;45.70
152;DHT22;68;48.792;9.164;2023-10-09T15:22:40;25.20;45.50
152;DHT22;68;48.792;9.164;2023-10-09T15:25:08;25.20;45.40
152;DHT22;68;48.792;9.164;2023-10-09T15:27:35;25.10;45.40
152;DHT22;68;48.792;9.164;2023-10-09T15:30:06;25.00;45.70
152;DHT22;68;48.792;9.164;2023-10-09T15:32:35;24.70;46.40
152;DHT22;68;48.792;9.164;2023-10-09T15:35:02;24.40;47.40
152;DHT22;68;48.792;9.164;2023-10-09T15:37:29;24.40;48.50
152;DHT22;68;48.792;9.164;2023-10-09T15:39:56;24.40;48.60
152;DHT22;68;48.792;9.164;2023-10-09T15:42:23;24.20;47.90
152;DHT22;68;48.792;9.164;2023-10-09T15:44:52;24.00;48.60
152;DHT22;68;48.792;9.164;2023-10-09T15:47:21;23.90;48.40
152;DHT22;68;48.792;9.164;2023-10-09T15:49:49;23.70;48.70
152;DHT22;68;48.792;9.164;2023-10-09T15:52:19;23.50;49.20
152;DHT22;68;48.792;9.164;2023-10-09T15:54:51;23.40;49.50
152;DHT22;68;48.792;9.164;2023-10-09T15:57:19;23.40;49.20
152;DHT22;68;48.792;9.164;2023-10-09T15:59:47;23.60;50.50
152;DHT22;68;48.792;9.164;2023-10-09T16:02:14;23.60;49.10
152;DHT22;68;48.792;9.164;2023-10-09T16:04:42;23.80;48.90
152;DHT22;68;48.792;9.164;2023-10-09T16:07:11;23.90;48.50
152;DHT22;68;48.792;9.164;2023-10-09T16:09:39;24.00;49.00
152;DHT22;68;48.792;9.164;2023-10-09T16:12:07;24.10;48.90
152;DHT22;68;48.792;9.164;2023-10-09T16:14:35;24.00;49.10
152;DHT22;68;48.792;9.164;2023-10-09T16:17:03;24.10;48.00
152;DHT22;68;48.792;9.164;2023-10-09T16:19:31;24.00;48.10
152;DHT22;68;48.792;9.164;2023-10-09T16:22:01;23.90;48.40
152;DHT22;68;48.792;9.164;2023-10-09T16:24:31;23.80;49.10
152;DHT22;68;48.792;9.164;2023-10-09T16:26:58;23.70;49.90
152;DHT22;68;48.792;9.164;2023-10-09T16:29:25;23.70;49.40
152;DHT22;68;48.792;9.164;2023-10-09T16:31:53;23.60;50.00
152;DHT22;68;48.792;9.164;2023-10-09T16:34:21;23.50;49.90
152;DHT22;68;48.792;9.164;2023-10-09T16:36:51;23.50;50.40
152;DHT22;68;48.792;9.164;2023-10-09T16:39:18;23.40;50.20
152;DHT22;68;48.792;9.164;2023-10-09T16:41:49;23.10;50.20
152;DHT22;68;48.792;9.164;2023-10-09T16:44:16;22.90;50.70
152;DHT22;68;48.792;9.164;2023-10-09T16:46:43;22.90;51.00
152;DHT22;68;48.792;9.164;2023-10-09T16:49:12;22.80;51.00
152;DHT22;68;48.792;9.164;2023-10-09T16:51:39;22.40;51.50
152;DHT22;68;48.792;9.164;2023-10-09T16:54:08;22.30;51.50
152;DHT22;68;48.792;9.164;2023-10-09T16:56:40;22.10;51.80
152;DHT22;68;48.792;9.164;2023-10-09T16:59:10;21.90;52.00
152;DHT22;68;48.792;9.164;2023-10-09T17:01:39;22.10;52.40
152;DHT22;68;48.792;9.164;2023-10-09T17:04:06;21.90;52.10
152;DHT22;68;48.792;9.164;2023-10-09T17:06:37;22.00;52.50
152;DHT22;68;48.792;9.164;2023-10-09T17:09:04;21.80;53.00
152;DHT22;68;48.792;9.164;2023-10-09T17:11:32;22.00;53.30
152;DHT22;68;48.792;9.164;2023-10-09T17:14:02;22.30;53.70
152;DHT22;68;48.792;9.164;2023-10-09T17:16:32;22.00;52.60
152;DHT22;68;48.792;9.164;2023-10-09T17:18:59;21.90;52.80
152;DHT22;68;48.792;9.164;2023-10-09T17:21:26;22.00;53.30
152;DHT22;68;48.792;9.164;2023-10-09T17:23:59;21.80;52.90
152;DHT22;68;48.792;9.164;2023-10-09T17:26:26;21.90;53.50
152;DHT22;68;48.792;9.164;2023-10-09T17:28:55;21.60;53.20
152;DHT22;68;48.792;9.164;2023-10-09T17:31:22;21.50;54.00
152;DHT22;68;48.792;9.164;2023-10-09T17:33:53;21.30;54.20